CJX3 weather

La Ronge Heliport
La Ronge, Saskatchewan, Canada

Public forecast

Using degrees Celsius for public forecast. Weather courtesy of forecast.io.

Closest aviation weather report (METAR) to La Ronge Heliport

Closest report is La Ronge Airport, 2.5 nm (4.6 km) NNE. Retrieved 2020/06/04 02:00 UTC (43 minutes ago):

CYVC 040200Z 03014G20KT 6SM -RA SCT018 OVC038 11/10 A2958 RMK SC3SC5 CIG RAG SLP030 DENSITY ALT 1500FT

Closest aviation forecast (TAF) to La Ronge Heliport

Closest forecast is La Ronge Airport, 2.5 nm (4.6 km) NNE. Retrieved 2020-06-04 01:45 UTC (58 minutes ago):

TAF CYVC 040042Z 0401/0413 04010KT P6SM -SHRA OVC070 TEMPO 0401/0405 BKN020 OVC060 FM040500 04010G20KT P6SM -RA BKN015 OVC025 TEMPO 0405/0413 2SM SHRA BR BKN006 OVC015 BECMG 0407/0409 04012G22KT RMK NXT FCST BY 040700Z